sensor_id;sensor_type;location;lat;lon;timestamp;P1;durP1;ratioP1;P2;durP2;ratioP2
40154;SDS011;25875;48.202;16.334;2022-08-07T14:44:43;5.30;;;3.65;;
40154;SDS011;25875;48.202;16.334;2022-08-07T14:47:13;6.10;;;3.60;;
40154;SDS011;25875;48.202;16.334;2022-08-07T14:49:43;6.20;;;3.08;;
40154;SDS011;25875;48.202;16.334;2022-08-07T14:52:11;3.70;;;2.85;;
40154;SDS011;25875;48.202;16.334;2022-08-07T14:54:39;4.13;;;3.35;;
40154;SDS011;25875;48.202;16.334;2022-08-07T14:57:10;4.18;;;3.40;;
40154;SDS011;25875;48.202;16.334;2022-08-07T14:59:41;3.65;;;2.80;;
40154;SDS011;25875;48.202;16.334;2022-08-07T15:02:11;4.78;;;3.10;;
40154;SDS011;25875;48.202;16.334;2022-08-07T15:04:40;4.38;;;3.10;;
40154;SDS011;25875;48.202;16.334;2022-08-07T15:07:10;3.83;;;2.95;;
40154;SDS011;25875;48.202;16.334;2022-08-07T15:12:13;3.80;;;2.97;;
40154;SDS011;25875;48.202;16.334;2022-08-07T15:14:48;4.38;;;2.83;;
40154;SDS011;25875;48.202;16.334;2022-08-07T15:17:18;4.95;;;4.07;;
40154;SDS011;25875;48.202;16.334;2022-08-07T15:19:52;4.22;;;3.53;;
40154;SDS011;25875;48.202;16.334;2022-08-07T15:22:26;4.80;;;3.22;;
40154;SDS011;25875;48.202;16.334;2022-08-07T15:24:55;4.93;;;3.90;;
40154;SDS011;25875;48.202;16.334;2022-08-07T15:27:24;5.68;;;3.67;;
40154;SDS011;25875;48.202;16.334;2022-08-07T15:29:58;5.20;;;3.83;;
40154;SDS011;25875;48.202;16.334;2022-08-07T15:32:33;4.07;;;3.42;;
40154;SDS011;25875;48.202;16.334;2022-08-07T15:35:11;5.22;;;3.58;;
40154;SDS011;25875;48.202;16.334;2022-08-07T15:37:40;5.38;;;3.53;;
40154;SDS011;25875;48.202;16.334;2022-08-07T15:40:12;4.80;;;3.80;;
40154;SDS011;25875;48.202;16.334;2022-08-07T15:42:51;7.95;;;4.55;;
40154;SDS011;25875;48.202;16.334;2022-08-07T15:45:29;5.03;;;2.83;;
40154;SDS011;25875;48.202;16.334;2022-08-07T15:48:01;5.88;;;4.05;;
40154;SDS011;25875;48.202;16.334;2022-08-07T15:50:34;4.93;;;3.60;;
40154;SDS011;25875;48.202;16.334;2022-08-07T15:53:06;4.53;;;3.70;;
40154;SDS011;25875;48.202;16.334;2022-08-07T15:55:37;3.93;;;3.33;;
40154;SDS011;25875;48.202;16.334;2022-08-07T15:58:07;5.03;;;4.13;;
40154;SDS011;25875;48.202;16.334;2022-08-07T16:00:38;5.03;;;3.70;;
40154;SDS011;25875;48.202;16.334;2022-08-07T16:03:09;5.55;;;3.95;;
40154;SDS011;25875;48.202;16.334;2022-08-07T16:05:42;4.82;;;3.95;;
40154;SDS011;25875;48.202;16.334;2022-08-07T16:08:12;5.13;;;3.35;;
40154;SDS011;25875;48.202;16.334;2022-08-07T16:10:44;5.10;;;3.20;;
40154;SDS011;25875;48.202;16.334;2022-08-07T16:16:18;7.22;;;3.30;;
40154;SDS011;25875;48.202;16.334;2022-08-07T16:19:01;4.20;;;2.90;;
40154;SDS011;25875;48.202;16.334;2022-08-07T16:21:41;4.47;;;2.63;;
40154;SDS011;25875;48.202;16.334;2022-08-07T16:24:20;5.93;;;3.75;;
40154;SDS011;25875;48.202;16.334;2022-08-07T16:26:55;4.55;;;3.75;;
40154;SDS011;25875;48.202;16.334;2022-08-07T16:29:32;6.35;;;5.68;;
40154;SDS011;25875;48.202;16.334;2022-08-07T16:32:17;6.57;;;5.70;;
40154;SDS011;25875;48.202;16.334;2022-08-07T16:34:51;6.65;;;5.20;;
40154;SDS011;25875;48.202;16.334;2022-08-07T16:37:32;5.55;;;4.82;;
40154;SDS011;25875;48.202;16.334;2022-08-07T16:46:28;4.80;;;3.50;;
40154;SDS011;25875;48.202;16.334;2022-08-07T16:52:29;4.15;;;3.28;;
40154;SDS011;25875;48.202;16.334;2022-08-07T16:55:12;5.10;;;3.40;;
40154;SDS011;25875;48.202;16.334;2022-08-07T16:57:52;5.35;;;2.90;;
40154;SDS011;25875;48.202;16.334;2022-08-07T17:00:30;4.28;;;3.10;;
40154;SDS011;25875;48.202;16.334;2022-08-07T17:03:14;5.63;;;3.70;;
40154;SDS011;25875;48.202;16.334;2022-08-07T17:05:51;3.70;;;3.20;;
40154;SDS011;25875;48.202;16.334;2022-08-07T17:08:32;5.28;;;4.57;;
40154;SDS011;25875;48.202;16.334;2022-08-07T17:11:05;5.57;;;4.45;;
40154;SDS011;25875;48.202;16.334;2022-08-07T17:13:39;6.78;;;4.72;;
40154;SDS011;25875;48.202;16.334;2022-08-07T17:16:17;14.00;;;5.38;;
40154;SDS011;25875;48.202;16.334;2022-08-07T17:18:52;5.90;;;4.35;;
40154;SDS011;25875;48.202;16.334;2022-08-07T17:21:28;9.73;;;6.30;;
40154;SDS011;25875;48.202;16.334;2022-08-07T17:24:02;10.10;;;5.00;;
40154;SDS011;25875;48.202;16.334;2022-08-07T17:26:45;4.47;;;3.60;;
40154;SDS011;25875;48.202;16.334;2022-08-07T17:29:22;6.18;;;3.78;;
40154;SDS011;25875;48.202;16.334;2022-08-07T17:32:01;6.28;;;3.83;;
40154;SDS011;25875;48.202;16.334;2022-08-07T17:34:36;5.20;;;3.97;;
40154;SDS011;25875;48.202;16.334;2022-08-07T17:37:08;6.35;;;3.45;;
40154;SDS011;25875;48.202;16.334;2022-08-07T17:39:41;7.97;;;7.03;;
40154;SDS011;25875;48.202;16.334;2022-08-07T17:42:14;11.32;;;8.82;;
40154;SDS011;25875;48.202;16.334;2022-08-07T17:44:53;6.80;;;5.25;;
40154;SDS011;25875;48.202;16.334;2022-08-07T17:47:28;5.70;;;4.15;;
40154;SDS011;25875;48.202;16.334;2022-08-07T17:50:02;5.88;;;3.70;;
40154;SDS011;25875;48.202;16.334;2022-08-07T17:52:39;5.30;;;3.78;;
40154;SDS011;25875;48.202;16.334;2022-08-07T17:55:13;4.70;;;3.55;;
40154;SDS011;25875;48.202;16.334;2022-08-07T17:57:46;4.72;;;3.28;;
40154;SDS011;25875;48.202;16.334;2022-08-07T18:00:19;6.28;;;4.38;;
40154;SDS011;25875;48.202;16.334;2022-08-07T18:02:51;8.93;;;4.72;;
40154;SDS011;25875;48.202;16.334;2022-08-07T18:05:22;5.05;;;3.33;;
40154;SDS011;25875;48.202;16.334;2022-08-07T18:08:02;6.43;;;3.35;;
40154;SDS011;25875;48.202;16.334;2022-08-07T18:10:36;5.45;;;3.38;;
40154;SDS011;25875;48.202;16.334;2022-08-07T18:13:15;5.95;;;3.90;;
40154;SDS011;25875;48.202;16.334;2022-08-07T18:15:50;6.03;;;4.40;;
40154;SDS011;25875;48.202;16.334;2022-08-07T18:18:25;7.38;;;6.63;;
40154;SDS011;25875;48.202;16.334;2022-08-07T18:20:59;11.98;;;9.82;;
40154;SDS011;25875;48.202;16.334;2022-08-07T18:23:33;17.40;;;13.70;;
40154;SDS011;25875;48.202;16.334;2022-08-07T18:26:10;23.50;;;15.60;;
40154;SDS011;25875;48.202;16.334;2022-08-07T18:28:44;14.63;;;10.10;;
40154;SDS011;25875;48.202;16.334;2022-08-07T18:31:37;6.40;;;5.60;;
40154;SDS011;25875;48.202;16.334;2022-08-07T18:34:17;12.07;;;10.32;;
40154;SDS011;25875;48.202;16.334;2022-08-07T18:36:58;15.52;;;12.07;;
40154;SDS011;25875;48.202;16.334;2022-08-07T18:39:44;15.02;;;12.40;;
40154;SDS011;25875;48.202;16.334;2022-08-07T18:42:26;11.50;;;10.15;;
40154;SDS011;25875;48.202;16.334;2022-08-07T18:47:34;8.98;;;7.63;;
40154;SDS011;25875;48.202;16.334;2022-08-07T18:53:07;7.88;;;6.05;;
40154;SDS011;25875;48.202;16.334;2022-08-07T18:55:53;10.18;;;8.27;;
40154;SDS011;25875;48.202;16.334;2022-08-07T18:58:31;11.40;;;10.20;;
40154;SDS011;25875;48.202;16.334;2022-08-07T19:01:05;13.25;;;11.85;;
40154;SDS011;25875;48.202;16.334;2022-08-07T19:03:47;11.88;;;10.57;;
40154;SDS011;25875;48.202;16.334;2022-08-07T19:06:27;9.93;;;8.95;;
40154;SDS011;25875;48.202;16.334;2022-08-07T19:09:03;10.23;;;7.70;;
40154;SDS011;25875;48.202;16.334;2022-08-07T19:11:40;7.45;;;5.93;;
40154;SDS011;25875;48.202;16.334;2022-08-07T19:14:15;9.63;;;6.85;;
40154;SDS011;25875;48.202;16.334;2022-08-07T19:16:51;7.60;;;6.25;;
40154;SDS011;25875;48.202;16.334;2022-08-07T19:19:26;5.53;;;4.25;;
40154;SDS011;25875;48.202;16.334;2022-08-07T19:21:59;8.10;;;7.20;;
40154;SDS011;25875;48.202;16.334;2022-08-07T19:24:35;11.52;;;10.32;;
40154;SDS011;25875;48.202;16.334;2022-08-07T19:27:09;11.82;;;10.63;;
40154;SDS011;25875;48.202;16.334;2022-08-07T19:29:41;9.45;;;8.48;;
40154;SDS011;25875;48.202;16.334;2022-08-07T19:32:13;9.48;;;8.18;;
40154;SDS011;25875;48.202;16.334;2022-08-07T19:34:46;6.70;;;5.40;;
40154;SDS011;25875;48.202;16.334;2022-08-07T19:37:18;6.20;;;5.05;;
40154;SDS011;25875;48.202;16.334;2022-08-07T19:39:48;5.35;;;4.75;;
40154;SDS011;25875;48.202;16.334;2022-08-07T19:42:23;5.07;;;4.22;;
40154;SDS011;25875;48.202;16.334;2022-08-07T19:44:52;6.78;;;4.07;;
40154;SDS011;25875;48.202;16.334;2022-08-07T19:47:21;5.53;;;4.80;;
40154;SDS011;25875;48.202;16.334;2022-08-07T19:49:54;6.45;;;5.53;;
40154;SDS011;25875;48.202;16.334;2022-08-07T19:52:23;10.48;;;8.90;;
40154;SDS011;25875;48.202;16.334;2022-08-07T19:54:52;9.80;;;8.80;;
40154;SDS011;25875;48.202;16.334;2022-08-07T19:57:22;7.80;;;6.75;;
40154;SDS011;25875;48.202;16.334;2022-08-07T19:59:54;7.22;;;6.47;;
40154;SDS011;25875;48.202;16.334;2022-08-07T20:02:26;6.68;;;6.03;;
40154;SDS011;25875;48.202;16.334;2022-08-07T20:04:55;5.47;;;4.72;;
40154;SDS011;25875;48.202;16.334;2022-08-07T20:07:25;5.97;;;4.60;;
40154;SDS011;25875;48.202;16.334;2022-08-07T20:09:57;6.00;;;4.45;;
40154;SDS011;25875;48.202;16.334;2022-08-07T20:12:28;6.68;;;4.25;;
40154;SDS011;25875;48.202;16.334;2022-08-07T20:14:56;4.35;;;3.63;;
40154;SDS011;25875;48.202;16.334;2022-08-07T20:17:28;5.95;;;4.57;;
40154;SDS011;25875;48.202;16.334;2022-08-07T20:19:58;6.65;;;5.45;;
40154;SDS011;25875;48.202;16.334;2022-08-07T20:22:28;8.15;;;7.25;;
40154;SDS011;25875;48.202;16.334;2022-08-07T20:25:00;7.35;;;6.57;;
40154;SDS011;25875;48.202;16.334;2022-08-07T20:27:33;5.82;;;4.82;;
40154;SDS011;25875;48.202;16.334;2022-08-07T20:30:02;3.78;;;3.38;;
40154;SDS011;25875;48.202;16.334;2022-08-07T20:32:31;4.78;;;3.80;;
40154;SDS011;25875;48.202;16.334;2022-08-07T20:35:01;5.05;;;4.13;;
40154;SDS011;25875;48.202;16.334;2022-08-07T20:37:32;4.32;;;3.88;;
40154;SDS011;25875;48.202;16.334;2022-08-07T20:40:03;5.47;;;4.40;;
40154;SDS011;25875;48.202;16.334;2022-08-07T20:42:37;5.72;;;4.82;;
40154;SDS011;25875;48.202;16.334;2022-08-07T20:45:09;5.25;;;4.50;;
40154;SDS011;25875;48.202;16.334;2022-08-07T20:47:41;5.28;;;4.78;;
40154;SDS011;25875;48.202;16.334;2022-08-07T20:50:11;6.35;;;5.07;;
40154;SDS011;25875;48.202;16.334;2022-08-07T20:52:39;4.82;;;4.30;;
40154;SDS011;25875;48.202;16.334;2022-08-07T20:55:07;4.55;;;4.10;;
40154;SDS011;25875;48.202;16.334;2022-08-07T20:57:39;4.70;;;3.70;;
40154;SDS011;25875;48.202;16.334;2022-08-07T21:02:41;5.38;;;4.35;;
40154;SDS011;25875;48.202;16.334;2022-08-07T21:05:24;4.60;;;3.95;;
40154;SDS011;25875;48.202;16.334;2022-08-07T21:07:55;5.55;;;5.05;;
40154;SDS011;25875;48.202;16.334;2022-08-07T21:10:28;7.03;;;6.32;;
40154;SDS011;25875;48.202;16.334;2022-08-07T21:13:04;8.90;;;8.00;;
40154;SDS011;25875;48.202;16.334;2022-08-07T21:15:36;6.30;;;5.68;;
40154;SDS011;25875;48.202;16.334;2022-08-07T21:18:05;7.32;;;6.03;;
40154;SDS011;25875;48.202;16.334;2022-08-07T21:20:36;5.22;;;4.57;;
40154;SDS011;25875;48.202;16.334;2022-08-07T21:23:06;4.32;;;3.75;;
40154;SDS011;25875;48.202;16.334;2022-08-07T21:25:45;5.07;;;4.18;;
40154;SDS011;25875;48.202;16.334;2022-08-07T21:28:20;6.05;;;3.50;;
40154;SDS011;25875;48.202;16.334;2022-08-07T21:30:53;4.43;;;3.35;;
40154;SDS011;25875;48.202;16.334;2022-08-07T21:33:30;4.32;;;3.40;;
40154;SDS011;25875;48.202;16.334;2022-08-07T21:38:38;4.22;;;3.58;;
40154;SDS011;25875;48.202;16.334;2022-08-07T21:41:17;7.13;;;4.18;;
40154;SDS011;25875;48.202;16.334;2022-08-07T21:43:55;4.65;;;3.80;;
40154;SDS011;25875;48.202;16.334;2022-08-07T21:46:34;4.13;;;3.70;;
40154;SDS011;25875;48.202;16.334;2022-08-07T21:49:09;4.60;;;3.65;;
40154;SDS011;25875;48.202;16.334;2022-08-07T21:51:44;5.20;;;4.38;;
40154;SDS011;25875;48.202;16.334;2022-08-07T21:54:18;4.88;;;3.75;;
40154;SDS011;25875;48.202;16.334;2022-08-07T21:57:08;6.03;;;3.60;;
40154;SDS011;25875;48.202;16.334;2022-08-07T21:59:45;4.28;;;3.35;;
40154;SDS011;25875;48.202;16.334;2022-08-07T22:02:25;4.22;;;3.50;;
40154;SDS011;25875;48.202;16.334;2022-08-07T22:04:57;4.85;;;3.92;;
40154;SDS011;25875;48.202;16.334;2022-08-07T22:07:27;5.38;;;3.17;;
40154;SDS011;25875;48.202;16.334;2022-08-07T22:09:59;4.75;;;3.05;;
40154;SDS011;25875;48.202;16.334;2022-08-07T22:12:29;4.20;;;3.03;;
40154;SDS011;25875;48.202;16.334;2022-08-07T22:15:03;5.15;;;3.28;;
40154;SDS011;25875;48.202;16.334;2022-08-07T22:17:36;5.13;;;3.28;;
40154;SDS011;25875;48.202;16.334;2022-08-07T22:20:11;4.25;;;3.58;;
40154;SDS011;25875;48.202;16.334;2022-08-07T22:22:45;4.95;;;3.58;;
40154;SDS011;25875;48.202;16.334;2022-08-07T22:25:17;4.50;;;3.30;;
40154;SDS011;25875;48.202;16.334;2022-08-07T22:27:48;4.38;;;3.50;;
40154;SDS011;25875;48.202;16.334;2022-08-07T22:30:23;4.22;;;3.08;;
40154;SDS011;25875;48.202;16.334;2022-08-07T22:33:01;4.57;;;3.28;;
40154;SDS011;25875;48.202;16.334;2022-08-07T22:35:34;4.20;;;3.20;;
40154;SDS011;25875;48.202;16.334;2022-08-07T22:38:09;4.47;;;3.88;;
40154;SDS011;25875;48.202;16.334;2022-08-07T22:40:43;5.05;;;3.35;;
40154;SDS011;25875;48.202;16.334;2022-08-07T22:43:25;7.00;;;3.42;;
40154;SDS011;25875;48.202;16.334;2022-08-07T22:46:05;4.70;;;3.25;;
40154;SDS011;25875;48.202;16.334;2022-08-07T22:48:57;4.75;;;3.08;;
40154;SDS011;25875;48.202;16.334;2022-08-07T22:51:40;4.70;;;3.70;;
40154;SDS011;25875;48.202;16.334;2022-08-07T22:54:20;4.10;;;2.83;;
40154;SDS011;25875;48.202;16.334;2022-08-07T22:57:01;2.95;;;2.60;;
40154;SDS011;25875;48.202;16.334;2022-08-07T22:59:46;3.60;;;3.30;;
40154;SDS011;25875;48.202;16.334;2022-08-07T23:08:24;3.83;;;3.00;;
40154;SDS011;25875;48.202;16.334;2022-08-07T23:11:04;4.55;;;3.40;;
40154;SDS011;25875;48.202;16.334;2022-08-07T23:13:49;4.68;;;3.00;;
40154;SDS011;25875;48.202;16.334;2022-08-07T23:16:32;4.13;;;3.22;;
40154;SDS011;25875;48.202;16.334;2022-08-07T23:19:17;4.50;;;3.10;;
40154;SDS011;25875;48.202;16.334;2022-08-07T23:22:12;3.88;;;2.65;;
40154;SDS011;25875;48.202;16.334;2022-08-07T23:24:54;4.00;;;3.33;;
40154;SDS011;25875;48.202;16.334;2022-08-07T23:27:45;4.28;;;2.90;;
40154;SDS011;25875;48.202;16.334;2022-08-07T23:30:27;4.05;;;2.88;;
40154;SDS011;25875;48.202;16.334;2022-08-07T23:33:09;3.70;;;2.92;;
40154;SDS011;25875;48.202;16.334;2022-08-07T23:36:09;3.08;;;2.55;;
40154;SDS011;25875;48.202;16.334;2022-08-07T23:38:48;3.50;;;3.13;;
40154;SDS011;25875;48.202;16.334;2022-08-07T23:41:26;3.90;;;2.80;;
40154;SDS011;25875;48.202;16.334;2022-08-07T23:44:15;3.78;;;2.75;;
40154;SDS011;25875;48.202;16.334;2022-08-07T23:47:11;4.72;;;3.35;;
40154;SDS011;25875;48.202;16.334;2022-08-07T23:49:50;3.50;;;2.78;;
40154;SDS011;25875;48.202;16.334;2022-08-07T23:52:36;6.35;;;2.78;;
40154;SDS011;25875;48.202;16.334;2022-08-07T23:55:10;3.65;;;3.03;;
40154;SDS011;25875;48.202;16.334;2022-08-07T23:57:43;3.72;;;2.70;;
